createdAt,value
2022-12-23T00:00:36.603Z,99113.16
2022-12-23T00:03:39.435Z,99110.25
2022-12-23T00:06:41.182Z,99105.50
2022-12-23T00:09:42.753Z,99108.03
2022-12-23T00:13:03.051Z,99083.41
2022-12-23T00:16:13.598Z,99085.94
2022-12-23T00:19:15.093Z,99093.25
2022-12-23T00:22:16.543Z,99103.25
2022-12-23T00:25:18.435Z,99111.19
2022-12-23T00:28:23.202Z,99107.44
2022-12-23T00:31:25.162Z,99105.59
2022-12-23T00:34:26.675Z,99101.00
2022-12-23T00:37:30.928Z,99105.38
2022-12-23T00:40:51.583Z,99099.97
2022-12-23T00:43:53.056Z,99088.28
2022-12-23T00:46:54.627Z,99087.22
2022-12-23T00:49:56.130Z,99099.97
2022-12-23T00:52:57.828Z,99095.38
2022-12-23T00:55:59.304Z,99099.97
2022-12-23T00:59:00.837Z,99096.41
2022-12-23T01:02:21.313Z,99101.84
2022-12-23T01:05:38.958Z,99094.53
2022-12-23T01:08:40.553Z,99105.38
2022-12-23T01:11:42.425Z,99105.59
2022-12-23T01:14:43.945Z,99102.88
2022-12-23T01:17:45.552Z,99110.16
2022-12-23T01:20:47.075Z,99104.72
2022-12-23T01:23:48.520Z,99110.16
2022-12-23T01:26:50.007Z,99112.03
2022-12-23T01:29:51.591Z,99112.84
2022-12-23T01:32:53.367Z,99111.19
2022-12-23T01:36:07.162Z,99112.03
2022-12-23T01:39:08.637Z,99122.88
2022-12-23T01:42:38.539Z,99120.16
2022-12-23T01:45:40.053Z,99124.94
2022-12-23T01:48:49.356Z,99120.38
2022-12-23T01:51:51.206Z,99122.44
2022-12-23T01:54:54.043Z,99122.22
2022-12-23T01:58:03.617Z,99122.22
2022-12-23T02:01:25.373Z,99118.69
2022-12-23T02:04:26.989Z,99122.44
2022-12-23T02:07:47.537Z,99135.16
2022-12-23T02:11:07.814Z,99132.44
2022-12-23T02:14:37.040Z,99135.34
2022-12-23T02:17:53.496Z,99135.34
2022-12-23T02:21:04.075Z,99148.88
2022-12-23T02:24:24.548Z,99148.88
2022-12-23T02:27:30.865Z,99149.91
2022-12-23T02:30:40.542Z,99146.53
2022-12-23T02:34:09.820Z,99135.47
2022-12-23T02:37:29.795Z,99132.97
2022-12-23T02:40:43.526Z,99138.41
2022-12-23T02:43:52.896Z,99138.41
2022-12-23T02:47:03.485Z,99132.16
2022-12-23T02:50:17.491Z,99132.97
2022-12-23T02:53:25.502Z,99129.44
2022-12-23T02:56:30.828Z,99136.69
2022-12-23T02:59:39.191Z,99150.91
2022-12-23T03:02:43.426Z,99143.81
2022-12-23T03:05:47.591Z,99141.09
2022-12-23T03:08:51.691Z,99152.97
2022-12-23T03:12:05.412Z,99150.09
2022-12-23T03:15:13.161Z,99151.97
2022-12-23T03:18:33.373Z,99154.66
2022-12-23T03:21:42.396Z,99146.53
2022-12-23T03:25:02.389Z,99143.81
2022-12-23T03:28:22.892Z,99148.19
2022-12-23T03:31:28.552Z,99155.50
2022-12-23T03:34:35.865Z,99151.13
2022-12-23T03:37:43.764Z,99147.53
2022-12-23T03:40:52.217Z,99160.09
2022-12-23T03:44:00.475Z,99151.97
2022-12-23T03:47:24.674Z,99160.09
2022-12-23T03:50:28.583Z,99152.97
2022-12-23T03:53:45.256Z,99157.56
2022-12-23T03:56:53.791Z,99159.44
2022-12-23T03:59:55.757Z,99152.53
2022-12-23T04:03:13.010Z,99167.56
2022-12-23T04:06:17.057Z,99167.75
2022-12-23T04:09:22.389Z,99182.16
2022-12-23T04:12:26.141Z,99193.38
2022-12-23T04:15:28.036Z,99188.81
2022-12-23T04:18:29.739Z,99198.16
2022-12-23T04:21:31.207Z,99204.41
2022-12-23T04:24:32.677Z,99208.13
2022-12-23T04:27:34.147Z,99214.59
2022-12-23T04:30:35.651Z,99213.78
2022-12-23T04:33:37.230Z,99208.53
2022-12-23T04:36:38.720Z,99213.09
2022-12-23T04:39:40.260Z,99214.16
2022-12-23T04:42:41.801Z,99223.28
2022-12-23T04:45:43.316Z,99229.56
2022-12-23T04:48:44.805Z,99226.22
2022-12-23T04:51:46.362Z,99218.25
2022-12-23T04:54:47.912Z,99225.56
2022-12-23T04:57:49.458Z,99222.00
2022-12-23T05:01:04.890Z,99225.56
2022-12-23T05:04:06.513Z,99233.84
2022-12-23T05:07:07.988Z,99242.00
2022-12-23T05:10:10.351Z,99236.78
2022-12-23T05:13:11.873Z,99247.78
2022-12-23T05:16:13.378Z,99246.13
2022-12-23T05:19:15.533Z,99248.84
2022-12-23T05:22:17.442Z,99257.13
2022-12-23T05:25:19.078Z,99264.44
2022-12-23T05:28:22.291Z,99274.44
2022-12-23T05:31:23.822Z,99267.31
2022-12-23T05:34:25.381Z,99271.91
2022-12-23T05:37:27.035Z,99272.94
2022-12-23T05:40:29.817Z,99279.38
2022-12-23T05:43:33.885Z,99275.00
2022-12-23T05:46:35.421Z,99284.78
2022-12-23T05:49:37.164Z,99294.78
2022-12-23T05:52:38.939Z,99295.84
2022-12-23T05:55:40.399Z,99286.84
2022-12-23T05:58:41.894Z,99296.47
2022-12-23T06:01:43.538Z,99297.50
2022-12-23T06:04:45.060Z,99300.22
2022-12-23T06:07:46.511Z,99302.75
2022-12-23T06:10:48.135Z,99305.25
2022-12-23T06:13:49.682Z,99313.22
2022-12-23T06:16:51.576Z,99313.88
2022-12-23T06:19:53.093Z,99325.38
2022-12-23T06:22:54.551Z,99320.81
2022-12-23T06:26:03.608Z,99323.31
2022-12-23T06:29:05.119Z,99329.56
2022-12-23T06:32:06.919Z,99344.00
2022-12-23T06:35:09.291Z,99345.50
2022-12-23T06:38:12.431Z,99347.34
2022-12-23T06:41:13.994Z,99338.19
2022-12-23T06:44:15.469Z,99343.63
2022-12-23T06:47:16.942Z,99364.25
2022-12-23T06:50:18.583Z,99353.25
2022-12-23T06:53:20.339Z,99364.09
2022-12-23T06:56:22.149Z,99373.06
2022-12-23T06:59:23.727Z,99379.53
2022-12-23T07:02:25.284Z,99377.66
2022-12-23T07:05:30.636Z,99382.22
2022-12-23T07:08:36.762Z,99401.84
2022-12-23T07:11:38.336Z,99401.00
2022-12-23T07:14:39.831Z,99396.63
2022-12-23T07:17:41.348Z,99403.94
2022-12-23T07:20:42.905Z,99411.03
2022-12-23T07:23:44.547Z,99402.22
2022-12-23T07:26:46.229Z,99402.22
2022-12-23T07:29:47.722Z,99405.13
2022-12-23T07:32:52.619Z,99412.22
2022-12-23T07:35:58.897Z,99418.50
2022-12-23T07:39:00.394Z,99422.22
2022-12-23T07:42:42.930Z,99424.28
2022-12-23T07:45:25.083Z,99433.09
2022-12-23T07:48:26.596Z,99430.75
2022-12-23T07:51:28.087Z,99438.22
2022-12-23T07:54:29.683Z,99437.53
2022-12-23T07:57:37.579Z,99440.06
2022-12-23T08:00:40.263Z,99440.91
2022-12-23T08:03:41.887Z,99441.59
2022-12-23T08:06:43.525Z,99450.56
2022-12-23T08:09:45.061Z,99450.72
2022-12-23T08:12:46.600Z,99459.69
2022-12-23T08:15:48.051Z,99467.00
2022-12-23T08:18:49.561Z,99463.91
2022-12-23T08:21:51.162Z,99470.19
2022-12-23T08:24:53.162Z,99472.03
2022-12-23T08:27:54.626Z,99474.41
2022-12-23T08:31:02.363Z,99472.34
2022-12-23T08:34:03.928Z,99476.94
2022-12-23T08:37:05.492Z,99472.34
2022-12-23T08:40:07.676Z,99469.47
2022-12-23T08:43:09.309Z,99468.63
2022-12-23T08:46:11.456Z,99482.84
2022-12-23T08:49:13.101Z,99482.66
2022-12-23T08:52:14.570Z,99481.81
2022-12-23T08:55:16.178Z,99495.38
2022-12-23T08:58:17.736Z,99499.75
2022-12-23T09:01:21.448Z,99494.16
2022-12-23T09:04:22.972Z,99490.63
2022-12-23T09:07:24.479Z,99482.47
2022-12-23T09:10:26.174Z,99486.88
2022-12-23T09:13:34.878Z,99489.56
2022-12-23T09:16:38.130Z,99492.94
2022-12-23T09:19:39.655Z,99490.06
2022-12-23T09:22:41.202Z,99491.91
2022-12-23T09:25:42.652Z,99497.16
2022-12-23T09:28:44.137Z,99497.88
2022-12-23T09:31:45.685Z,99503.97
2022-12-23T09:34:47.192Z,99502.09
2022-12-23T09:37:48.766Z,99502.91
2022-12-23T09:40:50.270Z,99508.19
2022-12-23T09:44:06.056Z,99505.25
2022-12-23T09:47:13.351Z,99494.25
2022-12-23T09:50:26.591Z,99500.50
2022-12-23T09:53:54.057Z,99499.47
2022-12-23T09:57:02.277Z,99486.09
2022-12-23T10:00:13.646Z,99493.88
2022-12-23T10:03:28.811Z,99504.72
2022-12-23T10:06:31.670Z,99503.88
2022-12-23T10:09:39.347Z,99487.41
2022-12-23T10:12:44.570Z,99505.25
2022-12-23T10:15:49.045Z,99509.69
2022-12-23T10:18:51.095Z,99504.47
2022-12-23T10:21:58.581Z,99507.19
2022-12-23T10:25:03.394Z,99509.69
2022-12-23T10:28:04.858Z,99513.28
2022-12-23T10:35:14.100Z,99496.47
2022-12-23T10:38:20.516Z,99495.44
2022-12-23T10:41:30.855Z,99492.75
2022-12-23T10:44:51.102Z,99481.88
2022-12-23T10:48:23.581Z,99484.41
2022-12-23T10:51:42.642Z,99472.72
2022-12-23T10:54:46.336Z,99474.41
2022-12-23T10:57:48.386Z,99464.41
2022-12-23T11:01:04.611Z,99475.94
2022-12-23T11:04:17.838Z,99473.22
2022-12-23T11:07:44.052Z,99470.28
2022-12-23T11:10:46.398Z,99474.72
2022-12-23T11:13:48.123Z,99472.63
2022-12-23T11:16:49.714Z,99464.50
2022-12-23T11:20:11.660Z,99463.50
2022-12-23T11:23:28.244Z,99468.91
2022-12-23T11:26:29.841Z,99463.50
2022-12-23T11:29:37.307Z,99466.19
2022-12-23T11:32:38.912Z,99465.38
2022-12-23T11:35:40.547Z,99470.59
2022-12-23T11:39:07.438Z,99467.72
2022-12-23T11:42:17.501Z,99463.94
2022-12-23T11:45:25.307Z,99463.78
2022-12-23T11:48:29.705Z,99455.28
2022-12-23T11:51:31.178Z,99457.16
2022-12-23T11:54:34.064Z,99458.44
2022-12-23T11:57:40.555Z,99452.66
2022-12-23T12:00:55.621Z,99453.31
2022-12-23T12:04:02.923Z,99447.53
2022-12-23T12:07:06.729Z,99445.66
2022-12-23T12:10:37.738Z,99426.09
2022-12-23T12:13:44.913Z,99426.75
2022-12-23T12:17:05.947Z,99411.78
2022-12-23T12:20:29.122Z,99397.81
2022-12-23T12:23:43.537Z,99403.75
2022-12-23T12:26:51.241Z,99393.34
2022-12-23T12:30:02.032Z,99389.41
2022-12-23T12:33:15.748Z,99387.34
2022-12-23T12:36:36.226Z,99393.44
2022-12-23T12:39:52.552Z,99382.19
2022-12-23T12:43:11.846Z,99369.28
2022-12-23T12:46:40.653Z,99367.19
2022-12-23T12:49:51.033Z,99349.06
2022-12-23T12:52:56.381Z,99341.75
2022-12-23T12:56:07.282Z,99333.22
2022-12-23T12:59:17.728Z,99338.47
2022-12-23T13:02:46.826Z,99337.25
2022-12-23T13:06:18.123Z,99335.38
2022-12-23T13:09:29.846Z,99343.50
2022-12-23T13:12:34.276Z,99336.19
2022-12-23T13:15:50.466Z,99334.31
2022-12-23T13:19:04.231Z,99326.00
2022-12-23T13:22:13.123Z,99331.22
2022-12-23T13:25:20.433Z,99333.09
2022-12-23T13:28:38.031Z,99331.44
2022-12-23T13:31:53.605Z,99322.44
2022-12-23T13:35:13.394Z,99327.66
2022-12-23T13:38:30.525Z,99332.25
2022-12-23T13:41:51.726Z,99332.09
2022-12-23T13:44:55.923Z,99316.63
2022-12-23T13:48:08.909Z,99317.47
2022-12-23T13:51:19.587Z,99311.19
2022-12-23T13:54:58.682Z,99306.59
2022-12-23T13:58:20.295Z,99301.34
2022-12-23T14:01:40.227Z,99297.63
2022-12-23T14:04:53.874Z,99303.88
2022-12-23T14:07:56.768Z,99296.78
2022-12-23T14:11:01.282Z,99296.56
2022-12-23T14:14:05.244Z,99294.91
2022-12-23T14:17:30.308Z,99292.63
2022-12-23T14:20:50.535Z,99280.94
2022-12-23T14:24:19.335Z,99280.75
2022-12-23T14:28:08.592Z,99269.88
2022-12-23T14:31:30.036Z,99269.03
2022-12-23T14:34:33.682Z,99269.03
2022-12-23T14:37:36.104Z,99260.88
2022-12-23T14:40:38.316Z,99270.50
2022-12-23T14:43:45.743Z,99268.28
2022-12-23T14:46:47.259Z,99262.63
2022-12-23T14:49:48.909Z,99256.84
2022-12-23T14:52:59.664Z,99255.41
2022-12-23T14:56:16.861Z,99248.09
2022-12-23T14:59:25.661Z,99241.16
2022-12-23T15:02:41.212Z,99241.16
2022-12-23T15:05:43.509Z,99234.06
2022-12-23T15:08:47.323Z,99233.22
2022-12-23T15:11:50.122Z,99231.53
2022-12-23T15:15:01.039Z,99227.78
2022-12-23T15:18:13.469Z,99221.53
2022-12-23T15:21:14.926Z,99211.69
2022-12-23T15:24:22.629Z,99202.50
2022-12-23T15:27:27.760Z,99200.81
2022-12-23T15:30:37.300Z,99186.22
2022-12-23T15:37:00.597Z,99178.25
2022-12-23T15:40:12.592Z,99182.63
2022-12-23T15:43:24.819Z,99169.06
2022-12-23T15:46:30.053Z,99168.22
2022-12-23T15:49:32.028Z,99163.63
2022-12-23T15:52:33.515Z,99173.66
2022-12-23T15:55:39.324Z,99160.91
2022-12-23T15:58:42.449Z,99164.69
2022-12-23T16:01:44.088Z,99160.28
2022-12-23T16:04:54.701Z,99161.78
2022-12-23T16:08:28.246Z,99166.00
2022-12-23T16:11:48.432Z,99165.78
2022-12-23T16:15:00.416Z,99167.50
2022-12-23T16:18:35.606Z,99159.13
2022-12-23T16:21:37.777Z,99153.50
2022-12-23T16:24:49.533Z,99134.91
2022-12-23T16:28:07.492Z,99128.25
2022-12-23T16:31:10.700Z,99134.97
2022-12-23T16:34:12.953Z,99128.31
2022-12-23T16:37:14.496Z,99119.94
2022-12-23T16:40:16.006Z,99130.63
2022-12-23T16:43:18.966Z,99126.84
2022-12-23T16:46:22.446Z,99122.06
2022-12-23T16:49:32.939Z,99124.78
2022-12-23T16:52:35.075Z,99128.34
2022-12-23T16:55:36.602Z,99121.06
2022-12-23T16:58:38.572Z,99118.94
2022-12-23T17:01:43.499Z,99115.22
2022-12-23T17:04:45.099Z,99108.94
2022-12-23T17:07:46.653Z,99111.66
2022-12-23T17:10:48.208Z,99099.75
2022-12-23T17:13:49.746Z,99098.91
2022-12-23T17:16:51.739Z,99092.41
2022-12-23T17:19:53.329Z,99089.50
2022-12-23T17:22:59.431Z,99075.72
2022-12-23T17:26:00.948Z,99068.59
2022-12-23T17:29:06.004Z,99072.38
2022-12-23T17:32:12.143Z,99069.44
2022-12-23T17:35:15.222Z,99061.69
2022-12-23T17:38:16.961Z,99064.41
2022-12-23T17:41:30.760Z,99059.63
2022-12-23T17:44:32.286Z,99043.50
2022-12-23T17:47:33.736Z,99047.06
2022-12-23T17:50:35.626Z,99040.78
2022-12-23T17:53:37.143Z,99036.41
2022-12-23T17:56:39.060Z,99033.69
2022-12-23T17:59:40.569Z,99029.09
2022-12-23T18:02:42.996Z,99023.47
2022-12-23T18:05:44.522Z,99016.16
2022-12-23T18:08:46.264Z,99009.47
2022-12-23T18:11:48.014Z,99001.31
2022-12-23T18:14:49.675Z,99000.25
2022-12-23T18:17:52.769Z,99002.78
2022-12-23T18:20:56.528Z,99000.91
2022-12-23T18:23:59.705Z,99002.56
2022-12-23T18:27:01.769Z,99002.56
2022-12-23T18:30:03.944Z,99013.06
2022-12-23T18:33:06.937Z,99004.91
2022-12-23T18:36:28.230Z,99009.09
2022-12-23T18:39:29.833Z,99007.34
2022-12-23T18:42:31.302Z,99009.56
2022-12-23T18:45:38.282Z,99003.72
2022-12-23T18:48:40.600Z,98999.75
2022-12-23T18:51:42.248Z,99005.59
2022-12-23T18:54:43.732Z,99005.84
2022-12-23T18:57:45.195Z,99003.34
2022-12-23T19:00:47.746Z,99005.47
2022-12-23T19:03:49.217Z,98998.78
2022-12-23T19:06:50.889Z,99001.09
2022-12-23T19:09:52.365Z,98994.63
2022-12-23T19:12:54.087Z,98983.53
2022-12-23T19:15:55.670Z,98984.19
2022-12-23T19:18:57.250Z,98979.59
2022-12-23T19:21:58.786Z,98983.78
2022-12-23T19:25:05.943Z,98984.63
2022-12-23T19:28:08.363Z,98987.13
2022-12-23T19:31:14.769Z,98992.16
2022-12-23T19:34:16.268Z,98996.56
2022-12-23T19:37:18.340Z,98998.44
2022-12-23T19:40:19.943Z,99006.38
2022-12-23T19:43:21.390Z,98994.69
2022-12-23T19:46:22.965Z,98994.69
2022-12-23T19:49:24.606Z,99003.47
2022-12-23T19:52:26.145Z,99011.81
2022-12-23T19:55:27.634Z,99013.50
2022-12-23T19:58:32.944Z,99013.09
2022-12-23T20:01:34.458Z,99032.13
2022-12-23T20:04:35.984Z,99026.47
2022-12-23T20:07:37.503Z,99023.56
2022-12-23T20:10:38.972Z,99030.66
2022-12-23T20:13:41.008Z,99024.19
2022-12-23T20:16:42.900Z,99026.91
2022-12-23T20:19:46.323Z,99010.59
2022-12-23T20:22:48.142Z,99030.66
2022-12-23T20:25:50.388Z,99037.53
2022-12-23T20:28:51.882Z,99043.97
2022-12-23T20:31:53.417Z,99047.16
2022-12-23T20:34:54.900Z,99045.91
2022-12-23T20:37:56.528Z,99051.13
2022-12-23T20:40:58.073Z,99053.66
2022-12-23T20:47:21.233Z,99055.94
2022-12-23T20:50:22.924Z,99056.78
2022-12-23T20:53:24.397Z,99045.72
2022-12-23T20:56:27.539Z,99065.38
2022-12-23T20:59:29.238Z,99066.22
2022-12-23T21:02:30.799Z,99062.44
2022-12-23T21:05:32.359Z,99063.28
2022-12-23T21:08:35.055Z,99079.22
2022-12-23T21:11:38.450Z,99071.06
2022-12-23T21:14:39.949Z,99074.78
2022-12-23T21:17:41.419Z,99078.16
2022-12-23T21:20:42.955Z,99077.31
2022-12-23T21:23:44.487Z,99082.53
2022-12-23T21:26:49.053Z,99088.63
2022-12-23T21:29:55.154Z,99094.06
2022-12-23T21:33:00.171Z,99100.53
2022-12-23T21:36:01.791Z,99106.00
2022-12-23T21:39:04.433Z,99105.16
2022-12-23T21:42:06.616Z,99111.41
2022-12-23T21:45:08.760Z,99116.03
2022-12-23T21:48:10.270Z,99111.84
2022-12-23T21:51:15.383Z,99119.78
2022-12-23T21:54:16.905Z,99123.72
2022-12-23T21:57:18.357Z,99134.59
2022-12-23T22:00:19.931Z,99137.13
2022-12-23T22:03:21.435Z,99138.16
2022-12-23T22:06:24.700Z,99141.53
2022-12-23T22:09:26.211Z,99154.47
2022-12-23T22:12:27.718Z,99153.44
2022-12-23T22:15:29.170Z,99161.38
2022-12-23T22:18:31.777Z,99157.81
2022-12-23T22:21:34.279Z,99158.66
2022-12-23T22:24:35.753Z,99165.34
2022-12-23T22:27:37.300Z,99170.78
2022-12-23T22:30:38.774Z,99161.78
2022-12-23T22:33:40.242Z,99167.22
2022-12-23T22:36:42.457Z,99190.84
2022-12-23T22:39:44.051Z,99175.59
2022-12-23T22:42:45.549Z,99180.00
2022-12-23T22:45:47.333Z,99180.19
2022-12-23T22:48:49.169Z,99197.34
2022-12-23T22:51:50.626Z,99201.09
2022-12-23T22:54:52.093Z,99196.47
2022-12-23T22:57:53.538Z,99200.44
2022-12-23T23:00:55.417Z,99207.56
2022-12-23T23:03:59.859Z,99199.41
2022-12-23T23:07:01.404Z,99208.81
2022-12-23T23:10:02.991Z,99215.91
2022-12-23T23:13:04.437Z,99216.97
2022-12-23T23:16:06.350Z,99214.25
2022-12-23T23:19:09.052Z,99217.16
2022-12-23T23:22:10.622Z,99220.09
2022-12-23T23:25:12.212Z,99219.22
2022-12-23T23:28:14.466Z,99212.97
2022-12-23T23:34:37.637Z,99220.28
2022-12-23T23:37:39.124Z,99215.25
2022-12-23T23:40:40.635Z,99210.84
2022-12-23T23:43:42.196Z,99213.56
2022-12-23T23:46:46.104Z,99216.09
2022-12-23T23:49:47.563Z,99217.13
2022-12-23T23:52:50.296Z,99220.88
2022-12-23T23:55:51.757Z,99237.19
2022-12-23T23:58:53.596Z,99230.91
